Time;durP1;ratioP1;P1;durP2;ratioP2;P2;SDS_P1;SDS_P2;PMS_P1;PMS_P2;Temp;Humidity;BMP_temperature;BMP_pressure;BME280_temperature;BME280_humidity;BME280_pressure;Samples;Min_cycle;Max_cycle;Signal;HPM_P1;HPM_P2
2021/06/30 00:02:25;;;;;;;9.15;5.80;;;20.60;75.90;;;;;;5055241;28;20032;-76
2021/06/30 00:04:52;;;;;;;8.23;6.30;;;20.50;76.10;;;;;;5055197;28;20025;-75
2021/06/30 00:07:18;;;;;;;7.10;5.90;;;20.50;76.40;;;;;;5054858;28;20368;-75
2021/06/30 00:09:43;;;;;;;12.27;5.60;;;20.50;76.40;;;;;;5054786;28;20040;-75
2021/06/30 00:12:09;;;;;;;8.05;5.60;;;20.40;76.50;;;;;;5053969;28;20067;-75
2021/06/30 00:14:35;;;;;;;9.65;5.85;;;20.40;76.60;;;;;;5054885;28;20021;-75
2021/06/30 00:17:02;;;;;;;8.30;5.60;;;20.40;76.60;;;;;;5055023;28;20116;-75
2021/06/30 00:19:28;;;;;;;7.60;5.55;;;20.40;76.60;;;;;;5054686;28;20029;-75
2021/06/30 00:21:54;;;;;;;11.15;6.28;;;20.40;76.60;;;;;;5054965;28;20104;-75
2021/06/30 00:24:20;;;;;;;10.48;5.70;;;20.40;76.60;;;;;;5054839;28;20056;-75
2021/06/30 00:26:46;;;;;;;6.43;5.82;;;20.40;76.60;;;;;;5054627;28;20033;-75
2021/06/30 00:29:11;;;;;;;6.43;5.38;;;20.40;76.60;;;;;;5054823;28;20095;-75
2021/06/30 00:31:37;;;;;;;6.55;5.60;;;20.30;76.40;;;;;;5069899;28;20478;-75
2021/06/30 00:34:03;;;;;;;10.63;5.72;;;20.30;77.00;;;;;;5054355;28;20036;-75
2021/06/30 00:36:37;;;;;;;9.25;5.60;;;20.30;76.20;;;;;;5054535;28;20082;-76
2021/06/30 00:39:06;;;;;;;7.87;5.60;;;20.30;76.10;;;;;;5054378;28;20033;-75
2021/06/30 00:41:32;;;;;;;11.07;5.75;;;20.30;76.00;;;;;;5054450;28;20250;-75
2021/06/30 00:43:58;;;;;;;8.98;5.68;;;20.20;75.90;;;;;;5054493;28;20024;-75
2021/06/30 00:46:32;;;;;;;11.05;5.80;;;20.20;75.70;;;;;;5054403;28;20151;-75
2021/06/30 00:48:58;;;;;;;9.88;5.45;;;20.20;75.80;;;;;;5054401;28;20033;-75
2021/06/30 00:51:25;;;;;;;7.95;5.28;;;20.20;75.80;;;;;;5057055;28;20052;-75
2021/06/30 00:53:52;;;;;;;7.22;4.93;;;20.30;75.80;;;;;;5053635;28;20368;-75
2021/06/30 00:56:24;;;;;;;12.07;5.75;;;20.30;75.60;;;;;;5054262;28;20403;-75
2021/06/30 00:58:51;;;;;;;9.60;6.60;;;20.30;75.40;;;;;;5053998;28;20108;-75
2021/06/30 01:01:19;;;;;;;10.55;6.80;;;20.30;75.50;;;;;;5053987;28;20025;-75
2021/06/30 01:03:46;;;;;;;11.43;6.00;;;20.30;75.60;;;;;;5053617;28;20487;-75
2021/06/30 01:06:12;;;;;;;8.23;6.57;;;20.30;75.50;;;;;;5069559;28;20090;-75
2021/06/30 01:08:38;;;;;;;9.00;6.45;;;20.30;75.60;;;;;;5054054;28;20455;-75
2021/06/30 01:11:04;;;;;;;7.68;6.03;;;20.30;75.60;;;;;;5054242;28;20075;-75
2021/06/30 01:13:30;;;;;;;9.57;5.32;;;20.20;75.50;;;;;;5057181;28;20025;-76
2021/06/30 01:15:56;;;;;;;8.48;5.07;;;20.20;75.50;;;;;;5073778;28;20510;-75
2021/06/30 01:18:23;;;;;;;10.45;5.30;;;20.20;75.30;;;;;;5073523;28;20024;-75
2021/06/30 01:20:50;;;;;;;9.50;5.90;;;20.10;75.20;;;;;;5073705;28;20075;-75
2021/06/30 01:23:16;;;;;;;7.03;5.40;;;20.20;75.00;;;;;;5073838;28;20035;-75
2021/06/30 01:25:43;;;;;;;8.93;6.00;;;20.20;75.00;;;;;;5073653;28;20032;-76
2021/06/30 01:28:08;;;;;;;13.07;7.28;;;20.20;75.00;;;;;;5073361;28;20037;-75
2021/06/30 01:30:34;;;;;;;10.07;5.90;;;20.10;75.00;;;;;;5073292;28;20523;-76
2021/06/30 01:33:00;;;;;;;8.73;6.68;;;20.10;75.00;;;;;;5073682;28;20029;-75
2021/06/30 01:35:27;;;;;;;9.25;6.50;;;20.10;75.00;;;;;;5073325;28;20024;-75
2021/06/30 01:37:53;;;;;;;8.40;5.70;;;20.10;74.90;;;;;;5073489;28;20098;-75
2021/06/30 01:40:20;;;;;;;7.63;5.53;;;20.10;74.60;;;;;;5073376;28;20120;-76
2021/06/30 01:42:48;;;;;;;8.35;5.57;;;20.00;74.40;;;;;;5073386;28;20029;-75
2021/06/30 01:45:14;;;;;;;7.85;5.32;;;20.00;74.30;;;;;;5073098;28;20561;-76
2021/06/30 01:47:40;;;;;;;6.75;5.47;;;20.10;74.40;;;;;;5073303;28;20542;-76
2021/06/30 01:50:07;;;;;;;9.35;5.75;;;20.10;74.20;;;;;;5073127;28;20043;-76
2021/06/30 01:52:33;;;;;;;9.70;6.40;;;20.10;74.20;;;;;;5073577;28;20049;-76
2021/06/30 01:54:59;;;;;;;7.85;5.25;;;20.20;74.20;;;;;;5073402;28;20032;-75
2021/06/30 01:57:25;;;;;;;7.13;4.90;;;20.20;73.70;;;;;;5073363;28;20064;-75
2021/06/30 01:59:51;;;;;;;8.55;5.38;;;20.20;73.30;;;;;;5073588;28;20052;-75
2021/06/30 02:02:17;;;;;;;10.18;5.47;;;20.20;73.10;;;;;;5073111;28;20096;-75
2021/06/30 02:04:55;;;;;;;7.65;5.03;;;20.20;73.20;;;;;;5071574;28;20036;-76
2021/06/30 02:07:21;;;;;;;9.05;6.03;;;20.30;73.00;;;;;;5077392;28;20127;-75
2021/06/30 02:09:47;;;;;;;6.68;4.55;;;20.30;73.10;;;;;;5077234;28;20500;-76
2021/06/30 02:12:12;;;;;;;5.65;4.40;;;20.30;72.60;;;;;;5075044;28;20025;-75
2021/06/30 02:14:38;;;;;;;7.32;4.13;;;20.30;71.90;;;;;;5057499;28;20104;-75
2021/06/30 02:17:04;;;;;;;8.23;5.13;;;20.30;71.40;;;;;;5071235;28;20093;-80
2021/06/30 02:19:30;;;;;;;12.13;5.07;;;20.30;71.30;;;;;;5074003;28;20079;-75
2021/06/30 02:21:55;;;;;;;6.78;4.47;;;20.40;71.20;;;;;;5077037;28;20439;-75
2021/06/30 02:24:21;;;;;;;8.35;4.82;;;20.40;71.00;;;;;;5092779;28;20028;-75
2021/06/30 02:26:47;;;;;;;8.73;4.85;;;20.40;70.80;;;;;;5076705;28;20021;-76
2021/06/30 02:29:13;;;;;;;8.27;4.85;;;20.50;70.90;;;;;;5077527;28;20037;-75
2021/06/30 02:31:38;;;;;;;7.88;4.70;;;20.50;70.80;;;;;;5077132;28;20037;-76
2021/06/30 02:34:04;;;;;;;5.82;4.63;;;20.60;71.30;;;;;;5076859;28;20035;-76
2021/06/30 02:36:30;;;;;;;5.80;4.65;;;20.60;70.70;;;;;;5075735;28;20391;-76
2021/06/30 02:38:57;;;;;;;5.53;4.60;;;20.70;70.80;;;;;;5074933;28;20032;-77
2021/06/30 02:41:23;;;;;;;8.02;5.00;;;20.80;70.70;;;;;;5072882;28;20052;-75
2021/06/30 02:43:49;;;;;;;6.82;5.53;;;20.90;70.50;;;;;;5072454;28;20497;-76
2021/06/30 02:46:15;;;;;;;9.60;5.90;;;20.90;70.40;;;;;;5075582;28;20040;-77
2021/06/30 02:48:41;;;;;;;5.90;4.80;;;20.90;70.60;;;;;;5075462;28;20020;-76
2021/06/30 02:51:07;;;;;;;7.00;5.38;;;21.00;70.00;;;;;;5075541;28;20025;-76
2021/06/30 02:53:33;;;;;;;5.38;4.88;;;21.00;69.60;;;;;;5075395;28;20052;-80
2021/06/30 02:56:02;;;;;;;7.63;5.10;;;21.10;69.20;;;;;;5075565;28;20024;-76
2021/06/30 02:58:28;;;;;;;5.60;4.80;;;21.20;69.20;;;;;;5075054;28;20021;-76
2021/06/30 03:00:54;;;;;;;7.97;5.10;;;21.30;69.10;;;;;;5074843;28;20028;-75
2021/06/30 03:03:20;;;;;;;6.55;5.55;;;21.30;68.80;;;;;;5074954;28;20017;-75
2021/06/30 03:05:45;;;;;;;6.35;5.05;;;21.40;68.50;;;;;;5074776;28;20569;-75
2021/06/30 03:08:11;;;;;;;5.68;4.57;;;21.50;68.30;;;;;;5075020;28;20020;-75
2021/06/30 03:10:37;;;;;;;5.07;4.05;;;21.50;68.00;;;;;;5073508;28;20029;-75
2021/06/30 03:13:03;;;;;;;5.20;4.07;;;21.60;67.70;;;;;;5072042;28;20024;-75
2021/06/30 03:15:28;;;;;;;4.93;4.07;;;21.70;67.50;;;;;;5075020;28;20024;-75
2021/06/30 03:17:54;;;;;;;6.53;3.78;;;21.70;67.30;;;;;;5073813;28;20035;-75
2021/06/30 03:20:20;;;;;;;5.63;3.80;;;21.70;67.20;;;;;;5074871;28;20012;-75
2021/06/30 03:22:45;;;;;;;6.32;3.80;;;21.80;66.80;;;;;;5074786;28;20115;-76
2021/06/30 03:25:14;;;;;;;4.68;4.18;;;21.80;66.70;;;;;;5074601;28;20458;-75
2021/06/30 03:27:40;;;;;;;4.60;3.97;;;21.90;66.80;;;;;;5074276;28;20025;-75
2021/06/30 03:30:08;;;;;;;4.63;4.13;;;22.00;66.90;;;;;;5074515;28;20039;-76
2021/06/30 03:32:34;;;;;;;6.30;4.38;;;22.00;66.90;;;;;;5074442;28;20458;-76
2021/06/30 03:35:00;;;;;;;7.20;4.97;;;22.10;66.90;;;;;;5074228;28;20021;-77
2021/06/30 03:37:26;;;;;;;5.20;4.30;;;22.10;66.80;;;;;;5075304;28;20051;-75
2021/06/30 03:39:52;;;;;;;5.55;4.80;;;22.20;66.90;;;;;;5075553;28;20029;-75
2021/06/30 03:42:18;;;;;;;6.63;4.38;;;22.20;66.80;;;;;;5075661;28;20070;-75
2021/06/30 03:44:43;;;;;;;6.60;4.10;;;22.30;66.80;;;;;;5075591;28;20067;-75
2021/06/30 03:47:09;;;;;;;7.65;4.50;;;22.40;66.70;;;;;;5075720;28;20067;-75
2021/06/30 03:49:35;;;;;;;5.32;4.32;;;22.50;66.60;;;;;;5075528;28;20036;-76
2021/06/30 03:52:01;;;;;;;6.22;4.38;;;22.50;66.60;;;;;;5075393;28;20056;-75
2021/06/30 03:54:27;;;;;;;6.95;3.95;;;22.60;66.60;;;;;;5075341;28;20032;-75
2021/06/30 03:56:53;;;;;;;4.75;3.90;;;22.60;66.50;;;;;;5074969;28;20037;-75
2021/06/30 03:59:20;;;;;;;4.13;3.72;;;22.70;66.40;;;;;;5075258;28;20064;-76
2021/06/30 04:01:46;;;;;;;6.80;4.40;;;22.80;66.40;;;;;;5075008;28;20475;-75
2021/06/30 04:04:13;;;;;;;5.90;4.40;;;22.80;66.40;;;;;;5075185;28;20029;-75
2021/06/30 04:06:40;;;;;;;6.95;3.85;;;22.90;66.30;;;;;;5074723;28;20056;-76
2021/06/30 04:09:06;;;;;;;5.45;3.67;;;23.00;66.40;;;;;;5075035;28;20035;-75
2021/06/30 04:11:33;;;;;;;5.15;4.18;;;23.00;66.20;;;;;;5075069;28;20055;-75
2021/06/30 04:13:58;;;;;;;8.32;4.95;;;23.00;66.20;;;;;;5074141;28;20108;-75
2021/06/30 04:16:24;;;;;;;4.72;3.85;;;23.10;66.20;;;;;;5074895;28;20430;-76
2021/06/30 04:18:50;;;;;;;5.63;4.25;;;23.10;66.20;;;;;;5074773;28;20029;-76
2021/06/30 04:21:16;;;;;;;5.40;3.90;;;23.20;66.10;;;;;;5075056;28;20031;-75
2021/06/30 04:23:42;;;;;;;6.57;4.25;;;23.20;66.00;;;;;;5074636;28;20437;-76
2021/06/30 04:26:08;;;;;;;4.60;4.07;;;23.30;65.80;;;;;;5074431;28;20116;-75
2021/06/30 04:28:33;;;;;;;6.20;3.90;;;23.40;65.70;;;;;;5072930;28;20043;-75
2021/06/30 04:30:59;;;;;;;6.70;4.18;;;23.50;65.60;;;;;;5069886;28;20033;-75
2021/06/30 04:33:25;;;;;;;7.53;4.18;;;23.60;65.40;;;;;;5054583;28;20082;-75
2021/06/30 04:35:51;;;;;;;6.22;3.90;;;23.70;65.30;;;;;;5066433;28;20067;-75
2021/06/30 04:38:16;;;;;;;5.03;3.97;;;23.70;65.00;;;;;;5074524;28;20035;-75
2021/06/30 04:40:43;;;;;;;4.47;3.75;;;23.80;65.00;;;;;;5074242;28;20428;-76
2021/06/30 04:43:09;;;;;;;5.97;3.67;;;23.90;64.90;;;;;;5074366;28;20028;-76
2021/06/30 04:45:35;;;;;;;5.10;3.95;;;24.00;64.80;;;;;;5089919;28;20073;-76
2021/06/30 04:48:01;;;;;;;5.97;4.65;;;24.00;64.50;;;;;;5074067;28;20036;-76
2021/06/30 04:50:26;;;;;;;5.45;4.25;;;24.10;64.40;;;;;;5084806;28;20032;-76
2021/06/30 04:52:52;;;;;;;4.55;4.13;;;24.20;64.40;;;;;;5073743;28;20049;-77
2021/06/30 04:55:18;;;;;;;6.03;4.07;;;24.20;64.10;;;;;;5073388;28;20391;-77
2021/06/30 04:57:43;;;;;;;5.53;4.30;;;24.30;63.80;;;;;;5073726;28;20075;-75
2021/06/30 05:00:10;;;;;;;7.97;4.35;;;24.30;63.40;;;;;;5074018;28;20370;-77
2021/06/30 05:02:36;;;;;;;4.88;4.35;;;24.40;63.30;;;;;;5073506;28;20017;-77
2021/06/30 05:05:02;;;;;;;8.38;4.50;;;24.50;63.30;;;;;;5069505;28;20044;-77
2021/06/30 05:07:28;;;;;;;7.60;3.75;;;24.50;63.30;;;;;;5073384;28;20056;-77
2021/06/30 05:09:54;;;;;;;5.70;4.60;;;24.60;63.20;;;;;;5073223;28;20524;-77
2021/06/30 05:12:19;;;;;;;6.68;4.15;;;24.70;62.90;;;;;;5073474;28;20025;-77
2021/06/30 05:14:45;;;;;;;4.13;3.78;;;24.70;62.50;;;;;;5072086;28;20373;-77
2021/06/30 05:17:11;;;;;;;5.88;3.97;;;24.70;62.30;;;;;;5073260;28;20374;-76
2021/06/30 05:19:37;;;;;;;6.32;4.32;;;24.80;62.30;;;;;;5073238;28;20028;-75
2021/06/30 05:22:04;;;;;;;4.90;4.18;;;24.80;62.40;;;;;;5073555;28;20029;-77
2021/06/30 05:24:30;;;;;;;6.05;3.88;;;24.90;62.30;;;;;;5073307;28;20475;-76
2021/06/30 05:26:55;;;;;;;5.15;4.63;;;24.90;62.20;;;;;;5073360;28;20128;-76
2021/06/30 05:29:21;;;;;;;12.55;4.43;;;24.90;62.20;;;;;;5073513;28;20035;-76
2021/06/30 05:31:47;;;;;;;5.93;4.22;;;24.90;62.20;;;;;;5073343;28;20083;-77
2021/06/30 05:34:13;;;;;;;5.88;3.97;;;25.00;62.30;;;;;;5073215;28;20043;-76
2021/06/30 05:36:40;;;;;;;4.63;4.20;;;25.00;61.90;;;;;;5071567;28;20035;-78
2021/06/30 05:39:05;;;;;;;5.38;4.53;;;25.10;61.90;;;;;;5072651;28;20016;-75
2021/06/30 05:41:31;;;;;;;5.78;4.45;;;25.20;61.60;;;;;;5072999;28;20047;-75
2021/06/30 05:43:57;;;;;;;6.45;4.50;;;25.30;61.50;;;;;;5073195;28;20020;-75
2021/06/30 05:46:23;;;;;;;5.47;4.60;;;25.30;61.40;;;;;;5072747;28;20071;-75
2021/06/30 05:48:48;;;;;;;5.53;4.20;;;25.40;61.30;;;;;;5072611;28;20051;-75
2021/06/30 05:51:14;;;;;;;6.38;4.40;;;25.50;61.30;;;;;;5073456;28;20021;-75
2021/06/30 05:53:40;;;;;;;5.35;4.10;;;25.60;61.30;;;;;;5073400;28;20118;-76
2021/06/30 05:56:07;;;;;;;6.10;4.28;;;25.70;60.90;;;;;;5072960;28;20033;-77
2021/06/30 05:58:34;;;;;;;4.70;4.30;;;25.70;60.80;;;;;;5072861;28;20503;-76
2021/06/30 06:01:00;;;;;;;6.95;4.28;;;25.70;60.90;;;;;;5072859;28;20032;-77
2021/06/30 06:03:26;;;;;;;5.13;3.78;;;25.80;60.70;;;;;;5073268;28;20101;-76
2021/06/30 06:05:52;;;;;;;4.00;3.70;;;25.80;60.20;;;;;;5073370;28;20466;-74
2021/06/30 06:08:18;;;;;;;4.10;3.75;;;25.90;59.50;;;;;;5072787;28;20032;-74
2021/06/30 06:10:43;;;;;;;4.85;3.80;;;26.00;59.20;;;;;;5072893;28;20029;-75
2021/06/30 06:13:09;;;;;;;4.00;3.42;;;26.00;58.60;;;;;;5070754;28;20024;-74
2021/06/30 06:15:35;;;;;;;4.35;3.60;;;26.00;58.40;;;;;;5072328;28;20032;-74
2021/06/30 06:18:01;;;;;;;4.03;3.65;;;26.10;58.20;;;;;;5072571;28;20071;-73
2021/06/30 06:20:27;;;;;;;4.55;3.45;;;26.20;57.90;;;;;;5072719;28;20029;-75
2021/06/30 06:22:53;;;;;;;3.72;3.42;;;26.20;57.60;;;;;;5072980;28;20033;-75
2021/06/30 06:25:18;;;;;;;3.95;3.33;;;26.20;57.40;;;;;;5072979;28;20025;-75
2021/06/30 06:27:44;;;;;;;4.50;3.60;;;26.30;57.40;;;;;;5072905;28;20115;-76
2021/06/30 06:30:10;;;;;;;4.07;3.58;;;26.30;57.20;;;;;;5070796;28;20048;-76
2021/06/30 06:32:36;;;;;;;4.68;3.20;;;26.40;57.00;;;;;;5068962;28;20459;-75
2021/06/30 06:35:04;;;;;;;3.33;3.03;;;26.50;56.00;;;;;;5071672;28;20117;-75
2021/06/30 06:37:30;;;;;;;4.32;3.58;;;26.50;55.70;;;;;;5072039;28;20486;-75
2021/06/30 06:39:56;;;;;;;4.57;3.75;;;26.50;55.70;;;;;;5072450;28;20021;-75
2021/06/30 06:42:23;;;;;;;4.13;3.38;;;26.60;55.80;;;;;;5071772;28;20024;-76
2021/06/30 06:44:49;;;;;;;3.20;3.00;;;26.70;55.70;;;;;;5071678;28;20027;-75
2021/06/30 06:47:15;;;;;;;4.40;3.40;;;26.70;55.60;;;;;;5071527;28;20077;-75
2021/06/30 06:49:41;;;;;;;3.88;3.20;;;26.80;56.00;;;;;;5071558;28;20515;-75
2021/06/30 06:52:07;;;;;;;3.45;3.22;;;26.80;55.40;;;;;;5068223;28;20136;-75
2021/06/30 06:54:32;;;;;;;3.70;3.40;;;26.90;55.40;;;;;;5075249;28;20462;-77
2021/06/30 06:56:58;;;;;;;3.70;3.10;;;27.00;55.40;;;;;;5074963;28;20029;-76
2021/06/30 06:59:24;;;;;;;3.50;3.20;;;27.00;55.40;;;;;;5074817;28;20178;-75
2021/06/30 07:01:50;;;;;;;3.35;2.90;;;27.00;55.00;;;;;;5075987;28;20081;-75
2021/06/30 07:04:15;;;;;;;4.28;3.05;;;27.10;54.90;;;;;;5075102;28;20359;-76
2021/06/30 07:06:41;;;;;;;3.75;3.30;;;27.20;54.50;;;;;;5075062;28;20083;-75
2021/06/30 07:09:07;;;;;;;5.25;3.20;;;27.20;54.00;;;;;;5074906;28;20028;-75
2021/06/30 07:11:35;;;;;;;4.50;3.63;;;27.20;54.20;;;;;;5074891;28;20029;-76
2021/06/30 07:14:00;;;;;;;7.60;3.55;;;27.30;54.60;;;;;;5075555;28;20478;-76
2021/06/30 07:16:26;;;;;;;3.42;3.13;;;27.30;54.90;;;;;;5076214;28;20031;-76
2021/06/30 07:18:52;;;;;;;4.03;3.10;;;27.30;54.60;;;;;;5075565;28;20047;-75
2021/06/30 07:21:18;;;;;;;5.75;3.35;;;27.40;53.60;;;;;;5075090;28;20021;-76
2021/06/30 07:23:43;;;;;;;3.70;3.40;;;27.50;53.70;;;;;;5074419;28;20471;-75
2021/06/30 07:26:14;;;;;;;5.47;2.90;;;27.50;53.50;;;;;;5074240;28;20031;-76
2021/06/30 07:28:40;;;;;;;4.38;3.22;;;27.50;53.60;;;;;;5074614;28;20115;-75
2021/06/30 07:31:07;;;;;;;5.03;3.50;;;27.60;53.40;;;;;;5073984;28;20119;-76
2021/06/30 07:33:33;;;;;;;3.30;3.00;;;27.60;53.20;;;;;;5071898;28;20024;-76
2021/06/30 07:35:59;;;;;;;4.47;2.95;;;27.70;52.70;;;;;;5074209;28;20059;-76
2021/06/30 07:38:26;;;;;;;3.40;3.10;;;27.80;52.50;;;;;;5074531;28;20036;-76
2021/06/30 07:40:52;;;;;;;3.38;3.05;;;27.80;52.30;;;;;;5074210;28;20050;-75
2021/06/30 07:43:18;;;;;;;3.95;2.92;;;27.90;52.00;;;;;;5073978;28;20466;-75
2021/06/30 07:45:43;;;;;;;3.40;3.10;;;27.90;52.00;;;;;;5074196;28;20024;-75
2021/06/30 07:48:09;;;;;;;4.88;3.40;;;28.00;52.20;;;;;;5073705;28;20034;-76
2021/06/30 07:50:35;;;;;;;5.25;3.42;;;28.00;52.20;;;;;;5074174;28;20024;-77
2021/06/30 07:53:01;;;;;;;3.72;3.20;;;28.10;52.40;;;;;;5073681;28;20048;-76
2021/06/30 07:55:27;;;;;;;7.85;3.30;;;28.20;52.40;;;;;;5074009;28;20145;-76
2021/06/30 07:57:53;;;;;;;7.93;3.55;;;28.30;52.60;;;;;;5074081;28;20025;-76
2021/06/30 08:00:19;;;;;;;3.55;3.25;;;28.40;52.60;;;;;;5074300;28;20378;-76
2021/06/30 08:02:45;;;;;;;3.95;3.65;;;28.40;52.60;;;;;;5073097;28;20027;-77
2021/06/30 08:05:11;;;;;;;4.60;3.97;;;28.40;52.70;;;;;;5074556;28;20028;-76
2021/06/30 08:07:37;;;;;;;4.60;3.80;;;28.40;53.00;;;;;;5075066;28;20073;-76
2021/06/30 08:10:08;;;;;;;3.90;3.33;;;28.50;52.70;;;;;;5074777;28;20082;-76
2021/06/30 08:12:34;;;;;;;4.10;3.70;;;28.60;52.50;;;;;;5074550;28;20101;-76
2021/06/30 08:15:00;;;;;;;3.63;3.33;;;28.70;53.00;;;;;;5074497;28;20024;-76
2021/06/30 08:17:26;;;;;;;8.13;3.58;;;28.80;52.50;;;;;;5074753;28;20036;-76
2021/06/30 08:19:52;;;;;;;6.18;3.33;;;29.00;52.20;;;;;;5074805;28;20039;-76
2021/06/30 08:22:18;;;;;;;3.47;3.10;;;29.10;52.10;;;;;;5074769;28;20021;-76
2021/06/30 08:24:44;;;;;;;4.57;3.25;;;29.20;52.20;;;;;;5074701;28;20020;-76
2021/06/30 08:27:12;;;;;;;3.97;3.33;;;29.30;52.20;;;;;;5074508;28;20478;-76
2021/06/30 08:29:40;;;;;;;4.60;3.92;;;29.40;51.80;;;;;;5074466;28;20032;-76
2021/06/30 08:32:06;;;;;;;4.00;3.40;;;29.50;51.70;;;;;;5074319;28;20032;-76
2021/06/30 08:34:32;;;;;;;6.03;3.22;;;29.60;51.40;;;;;;5075185;28;20051;-76
2021/06/30 08:37:00;;;;;;;4.95;3.60;;;29.70;51.20;;;;;;5074364;28;20459;-75
2021/06/30 08:39:26;;;;;;;7.43;3.22;;;29.90;51.10;;;;;;5074447;28;20374;-75
2021/06/30 08:41:52;;;;;;;14.07;4.10;;;30.00;50.80;;;;;;5074242;28;20033;-75
2021/06/30 08:44:18;;;;;;;6.88;4.60;;;30.00;50.70;;;;;;5074606;28;20021;-77
2021/06/30 08:46:45;;;;;;;10.80;3.70;;;30.20;51.00;;;;;;5074134;28;20450;-76
2021/06/30 08:49:13;;;;;;;5.57;3.45;;;30.40;50.90;;;;;;5074229;28;20108;-75
2021/06/30 08:51:42;;;;;;;4.97;3.88;;;30.60;51.00;;;;;;5074139;28;20119;-75
2021/06/30 08:54:10;;;;;;;5.28;4.10;;;30.90;50.70;;;;;;5074129;28;20425;-75
2021/06/30 08:56:36;;;;;;;4.40;3.85;;;31.10;50.40;;;;;;5072810;28;20493;-75
2021/06/30 08:59:03;;;;;;;3.72;3.30;;;31.40;50.30;;;;;;5068107;28;20077;-77
2021/06/30 09:01:31;;;;;;;4.82;3.30;;;31.60;49.80;;;;;;5071011;28;20541;-76
2021/06/30 09:03:58;;;;;;;3.53;3.20;;;31.90;49.60;;;;;;5073744;28;20016;-76
2021/06/30 09:06:24;;;;;;;5.47;3.25;;;32.10;49.50;;;;;;5074411;28;20078;-75
2021/06/30 09:08:50;;;;;;;5.35;3.38;;;32.20;49.30;;;;;;5073833;28;20028;-76
2021/06/30 09:11:22;;;;;;;6.05;3.35;;;32.40;49.00;;;;;;5073668;28;20025;-77
2021/06/30 09:13:49;;;;;;;5.70;3.50;;;32.60;48.60;;;;;;5073799;28;20033;-77
2021/06/30 09:16:15;;;;;;;3.53;3.20;;;32.80;48.20;;;;;;5073065;28;20475;-76
2021/06/30 09:18:42;;;;;;;6.57;3.67;;;33.00;48.10;;;;;;5074008;28;20094;-76
2021/06/30 09:21:23;;;;;;;6.75;3.90;;;33.20;47.80;;;;;;5073504;28;20448;-76
2021/06/30 09:24:03;;;;;;;4.20;3.42;;;33.40;47.30;;;;;;5072376;28;20025;-77
2021/06/30 09:26:35;;;;;;;4.90;3.92;;;33.40;47.00;;;;;;5073735;28;20043;-76
2021/06/30 09:29:11;;;;;;;4.55;3.55;;;33.70;47.30;;;;;;5073427;28;20044;-75
2021/06/30 09:31:42;;;;;;;3.58;3.15;;;34.00;47.00;;;;;;5073641;28;20029;-75
2021/06/30 09:34:09;;;;;;;7.55;3.60;;;34.20;46.70;;;;;;5073403;28;20402;-75
2021/06/30 09:36:50;;;;;;;4.00;3.63;;;34.50;46.20;;;;;;5073483;28;20032;-76
2021/06/30 09:39:16;;;;;;;4.15;3.58;;;34.40;45.90;;;;;;5073306;28;20037;-76
2021/06/30 09:41:44;;;;;;;4.60;3.63;;;34.30;46.70;;;;;;5073566;28;20032;-76
2021/06/30 09:44:13;;;;;;;4.80;3.35;;;34.30;45.80;;;;;;5073465;28;20024;-76
2021/06/30 09:46:42;;;;;;;4.53;3.70;;;34.60;45.70;;;;;;5073588;28;20315;-75
2021/06/30 09:49:12;;;;;;;5.40;3.50;;;35.00;45.20;;;;;;5073404;28;20394;-76
2021/06/30 09:51:39;;;;;;;3.63;2.97;;;35.60;44.90;;;;;;5073425;28;20079;-76
2021/06/30 09:54:11;;;;;;;3.28;3.08;;;36.10;44.40;;;;;;5073363;28;20023;-76
2021/06/30 09:56:38;;;;;;;3.53;3.22;;;36.50;44.00;;;;;;5073010;28;20024;-76
2021/06/30 09:59:26;;;;;;;5.53;3.63;;;36.70;44.20;;;;;;5073232;28;20028;-76
2021/06/30 10:01:56;;;;;;;5.15;3.40;;;36.80;43.10;;;;;;5073116;28;20115;-78
2021/06/30 10:04:24;;;;;;;11.77;3.75;;;37.20;43.10;;;;;;5073245;28;20101;-75
2021/06/30 10:06:55;;;;;;;6.88;3.90;;;37.50;42.60;;;;;;5073292;28;20021;-76
2021/06/30 10:09:21;;;;;;;4.50;3.47;;;37.90;42.30;;;;;;5072989;28;20024;-76
2021/06/30 10:11:56;;;;;;;3.50;3.20;;;38.20;42.00;;;;;;5073197;28;20035;-77
2021/06/30 10:14:22;;;;;;;8.63;3.47;;;38.60;41.50;;;;;;5073095;28;20090;-77
2021/06/30 10:16:49;;;;;;;6.38;3.60;;;38.80;41.10;;;;;;5072988;28;20032;-76
2021/06/30 10:19:15;;;;;;;4.35;3.28;;;38.90;40.80;;;;;;5072817;28;20029;-75
2021/06/30 10:21:40;;;;;;;3.80;3.35;;;39.00;40.70;;;;;;5072985;28;20029;-77
2021/06/30 10:24:07;;;;;;;5.15;3.45;;;39.20;40.70;;;;;;5072073;28;20028;-76
2021/06/30 10:26:33;;;;;;;9.32;3.72;;;39.30;40.50;;;;;;5070415;28;20026;-75
2021/06/30 10:29:00;;;;;;;4.35;3.80;;;39.50;40.30;;;;;;5075214;28;20031;-77
2021/06/30 10:31:34;;;;;;;7.70;3.90;;;39.60;40.00;;;;;;5076975;28;20425;-77
2021/06/30 10:34:02;;;;;;;13.60;4.70;;;39.80;39.60;;;;;;5076307;28;20032;-76
2021/06/30 10:36:50;;;;;;;7.55;4.38;;;40.00;39.50;;;;;;5076859;28;20028;-76
2021/06/30 10:39:18;;;;;;;5.18;3.78;;;40.20;39.40;;;;;;5076596;28;20031;-76
2021/06/30 10:41:52;;;;;;;6.18;4.00;;;40.30;39.40;;;;;;5076798;28;20032;-76
2021/06/30 10:44:23;;;;;;;5.47;4.05;;;40.50;39.50;;;;;;5076465;28;20037;-76
2021/06/30 10:46:50;;;;;;;6.07;3.60;;;40.70;39.30;;;;;;5076258;28;20024;-77
2021/06/30 10:49:29;;;;;;;12.82;4.30;;;40.80;39.10;;;;;;5076621;28;19920;-77
2021/06/30 10:52:03;;;;;;;5.82;4.22;;;41.10;39.00;;;;;;5076466;28;20474;-80
2021/06/30 10:54:32;;;;;;;5.28;3.90;;;41.30;38.80;;;;;;5076470;28;20024;-76
2021/06/30 10:57:25;;;;;;;6.20;4.32;;;41.50;37.90;;;;;;5076219;28;20117;-77
2021/06/30 11:00:12;;;;;;;;;;;41.70;37.80;;;;;;5075115;28;20107;-77
2021/06/30 11:02:38;;;;;;;5.35;3.75;;;41.70;38.30;;;;;;5076140;28;20285;-77
2021/06/30 11:05:13;;;;;;;8.27;4.28;;;42.00;37.90;;;;;;5076059;28;20028;-77
2021/06/30 11:07:40;;;;;;;4.78;3.83;;;42.20;37.80;;;;;;5076183;28;20033;-77
2021/06/30 11:10:19;;;;;;;5.88;3.78;;;42.30;37.70;;;;;;5076049;28;20028;-77
2021/06/30 11:12:59;;;;;;;5.28;3.88;;;42.20;37.40;;;;;;5075522;28;20032;-77
2021/06/30 11:15:51;;;;;;;3.60;3.30;;;42.20;37.40;;;;;;5074661;28;20073;-78
2021/06/30 11:18:16;;;;;;;4.68;4.03;;;42.30;37.30;;;;;;5071464;28;20186;-76
2021/06/30 11:20:46;;;;;;;12.45;4.35;;;42.20;37.00;;;;;;5074325;28;20103;-77
2021/06/30 11:23:18;;;;;;;5.10;4.22;;;42.20;37.20;;;;;;5074723;28;20230;-76
2021/06/30 11:25:44;;;;;;;5.50;3.90;;;42.40;37.30;;;;;;5074670;28;20039;-78
2021/06/30 11:28:38;;;;;;;5.28;3.60;;;42.70;37.40;;;;;;5074541;28;20059;-79
2021/06/30 11:31:23;;;;;;;5.00;4.00;;;43.00;37.30;;;;;;5073580;28;20086;-76
2021/06/30 11:34:13;;;;;;;5.00;3.63;;;43.30;37.20;;;;;;5075003;28;20047;-76
2021/06/30 11:36:42;;;;;;;3.70;3.38;;;43.70;36.90;;;;;;5075667;28;20028;-76
2021/06/30 11:39:10;;;;;;;4.85;3.58;;;43.90;36.70;;;;;;5074636;28;20112;-76
2021/06/30 11:41:46;;;;;;;4.03;3.40;;;43.70;36.50;;;;;;5075713;28;20016;-76
2021/06/30 11:44:13;;;;;;;3.83;3.53;;;43.50;36.70;;;;;;5075026;28;20039;-77
2021/06/30 11:46:41;;;;;;;5.05;3.72;;;43.70;36.60;;;;;;5075501;28;20035;-76
2021/06/30 11:49:09;;;;;;;3.67;3.38;;;44.10;36.30;;;;;;5075237;28;20085;-76
2021/06/30 11:51:35;;;;;;;3.47;3.17;;;44.10;36.00;;;;;;5075095;28;20045;-76
2021/06/30 11:54:01;;;;;;;3.47;2.90;;;43.30;35.50;;;;;;5075225;28;20470;-75
2021/06/30 11:56:36;;;;;;;6.70;3.35;;;42.10;35.80;;;;;;5075340;28;20021;-76
2021/06/30 11:59:04;;;;;;;3.65;3.35;;;41.40;36.30;;;;;;5075003;28;20433;-77
2021/06/30 12:01:32;;;;;;;4.25;3.40;;;41.70;36.70;;;;;;5074838;28;20035;-76
2021/06/30 12:04:07;;;;;;;8.20;3.53;;;42.40;36.30;;;;;;5074612;28;20058;-81
2021/06/30 12:06:33;;;;;;;4.05;3.25;;;43.00;35.80;;;;;;5071578;28;20036;-76
2021/06/30 12:09:14;;;;;;;3.65;2.95;;;43.60;35.50;;;;;;5054484;28;20093;-75
2021/06/30 12:11:45;;;;;;;4.28;2.80;;;44.10;35.10;;;;;;5054719;28;20025;-76
2021/06/30 12:14:16;;;;;;;5.00;2.90;;;44.60;34.60;;;;;;5070070;28;20127;-76
2021/06/30 12:16:51;;;;;;;3.97;3.08;;;44.90;34.30;;;;;;5075081;28;20063;-76
2021/06/30 12:19:20;;;;;;;4.93;3.20;;;45.30;34.10;;;;;;5074875;28;20060;-76
2021/06/30 12:21:47;;;;;;;3.20;2.90;;;45.50;34.00;;;;;;5073406;28;20028;-76
2021/06/30 12:24:18;;;;;;;3.85;2.92;;;45.70;33.80;;;;;;5074482;28;20055;-76
2021/06/30 12:27:01;;;;;;;14.05;3.72;;;45.90;33.40;;;;;;5074333;28;20056;-76
2021/06/30 12:29:28;;;;;;;5.32;3.28;;;46.00;33.20;;;;;;5074776;28;20447;-76
2021/06/30 12:31:54;;;;;;;4.88;3.50;;;45.90;33.30;;;;;;5074485;28;20059;-76
2021/06/30 12:34:22;;;;;;;3.95;3.08;;;46.00;33.10;;;;;;5074150;28;20501;-76
2021/06/30 12:36:48;;;;;;;3.33;3.08;;;46.10;32.90;;;;;;5074593;28;20028;-76
2021/06/30 12:39:22;;;;;;;3.70;2.70;;;46.30;32.80;;;;;;5073823;28;20050;-76
2021/06/30 12:41:59;;;;;;;3.63;3.33;;;46.30;32.70;;;;;;5074929;28;20036;-76
2021/06/30 12:44:25;;;;;;;3.00;2.80;;;46.30;32.90;;;;;;5074238;28;20020;-76
2021/06/30 12:47:11;;;;;;;3.00;2.80;;;46.30;32.80;;;;;;5074243;28;20035;-76
2021/06/30 12:49:38;;;;;;;3.20;2.90;;;46.70;32.70;;;;;;5068083;28;20040;-76